Time,TemperatureF,DewpointF,PressureIn,WindDirection,WindDirectionDegrees,WindSpeedMPH,WindSpeedGustMPH,Humidity,HourlyPrecipIn,Conditions,Clouds,dailyrainin,SoftwareType,DateUTC
2013-05-07 00:03:00,59.0,54.8,30.06,SSE,166,0.0,4.0,86,0.00,,,0.00,Wunderground v.1.15,2013-05-07 07:03:00,
2013-05-07 00:09:00,59.0,54.8,30.07,SSE,161,0.0,4.0,86,0.00,,,0.00,Wunderground v.1.15,2013-05-07 07:09:00,
2013-05-07 00:14:00,59.0,54.5,30.07,SSE,160,0.0,1.0,85,0.00,,,0.00,Wunderground v.1.15,2013-05-07 07:14:00,
2013-05-07 00:19:00,59.1,54.6,30.07,SSE,159,0.0,1.0,85,0.00,,,0.00,Wunderground v.1.15,2013-05-07 07:19:00,
2013-05-07 00:24:00,59.3,54.8,30.07,SSE,159,0.0,0.0,85,0.00,,,0.00,Wunderground v.1.15,2013-05-07 07:24:00,
2013-05-07 00:29:00,59.3,54.8,30.07,SSE,159,0.0,0.0,85,0.00,,,0.00,Wunderground v.1.15,2013-05-07 07:29:00,
2013-05-07 00:34:00,59.2,54.7,30.07,SSE,159,0.0,0.0,85,0.00,,,0.00,Wunderground v.1.15,2013-05-07 07:34:00,
2013-05-07 00:39:00,59.0,54.8,30.07,SSE,159,0.0,0.0,86,0.00,,,0.00,Wunderground v.1.15,2013-05-07 07:39:00,
2013-05-07 00:45:00,59.0,54.8,30.07,SSE,159,0.0,0.0,86,0.00,,,0.01,Wunderground v.1.15,2013-05-07 07:45:00,
2013-05-07 00:50:00,58.8,54.6,30.07,SSE,159,0.0,0.0,86,0.00,,,0.01,Wunderground v.1.15,2013-05-07 07:50:00,
2013-05-07 00:56:00,58.5,54.3,30.07,SSE,159,0.0,0.0,86,0.00,,,0.01,Wunderground v.1.15,2013-05-07 07:56:00,
2013-05-07 01:01:00,58.7,54.5,30.07,SSE,159,0.0,0.0,86,0.00,,,0.01,Wunderground v.1.15,2013-05-07 08:01:00,
2013-05-07 01:06:00,59.0,55.1,30.07,SSE,159,0.0,0.0,87,0.00,,,0.01,Wunderground v.1.15,2013-05-07 08:06:00,
2013-05-07 01:11:00,58.8,54.6,30.07,SSE,159,0.0,0.0,86,0.00,,,0.01,Wunderground v.1.15,2013-05-07 08:11:00,
2013-05-07 01:17:00,58.6,54.4,30.07,SSE,159,0.0,0.0,86,0.00,,,0.01,Wunderground v.1.15,2013-05-07 08:17:00,
2013-05-07 01:22:00,58.5,54.3,30.07,SSE,159,0.0,0.0,86,0.00,,,0.01,Wunderground v.1.15,2013-05-07 08:22:00,
2013-05-07 01:27:00,58.4,54.5,30.07,SSE,159,0.0,0.0,87,0.00,,,0.01,Wunderground v.1.15,2013-05-07 08:27:00,
2013-05-07 01:32:00,58.2,54.3,30.07,SSE,159,0.0,0.0,87,0.00,,,0.01,Wunderground v.1.15,2013-05-07 08:32:00,
2013-05-07 01:37:00,58.1,54.2,30.07,SSE,159,0.0,0.0,87,0.00,,,0.01,Wunderground v.1.15,2013-05-07 08:37:00,
2013-05-07 01:42:00,58.2,54.3,30.07,SSE,159,0.0,0.0,87,0.00,,,0.01,Wunderground v.1.15,2013-05-07 08:42:00,
2013-05-07 01:47:00,58.0,54.2,30.07,SSE,159,0.0,0.0,87,0.00,,,0.01,Wunderground v.1.15,2013-05-07 08:47:00,
2013-05-07 01:53:00,57.9,54.1,30.07,SSE,159,0.0,0.0,87,0.00,,,0.01,Wunderground v.1.15,2013-05-07 08:53:00,
2013-05-07 01:58:00,57.9,54.1,30.07,SSE,159,0.0,0.0,87,0.00,,,0.01,Wunderground v.1.15,2013-05-07 08:58:00,
2013-05-07 02:03:00,57.9,53.7,30.06,SSE,159,0.0,0.0,86,0.00,,,0.01,Wunderground v.1.15,2013-05-07 09:03:00,
2013-05-07 02:08:00,58.2,54.3,30.07,SSE,159,0.0,0.0,87,0.00,,,0.01,Wunderground v.1.15,2013-05-07 09:08:00,
2013-05-07 02:13:00,58.3,54.4,30.06,SSE,159,0.0,0.0,87,0.00,,,0.01,Wunderground v.1.15,2013-05-07 09:13:00,
2013-05-07 02:18:00,58.4,54.5,30.07,SSE,159,0.0,0.0,87,0.00,,,0.01,Wunderground v.1.15,2013-05-07 09:18:00,
2013-05-07 02:23:00,58.3,54.4,30.06,SSE,159,0.0,0.0,87,0.00,,,0.01,Wunderground v.1.15,2013-05-07 09:23:00,
2013-05-07 02:28:00,58.3,54.4,30.07,SSE,159,0.0,0.0,87,0.00,,,0.01,Wunderground v.1.15,2013-05-07 09:28:00,
2013-05-07 02:33:00,58.2,54.3,30.07,SSE,159,0.0,0.0,87,0.00,,,0.01,Wunderground v.1.15,2013-05-07 09:33:00,
2013-05-07 02:38:00,58.1,54.2,30.07,SSE,159,0.0,1.0,87,0.00,,,0.01,Wunderground v.1.15,2013-05-07 09:38:00,
2013-05-07 02:43:00,58.2,54.0,30.07,SSE,159,0.0,0.0,86,0.00,,,0.01,Wunderground v.1.15,2013-05-07 09:43:00,
2013-05-07 02:48:00,58.1,53.9,30.07,SSE,159,0.0,2.0,86,0.00,,,0.01,Wunderground v.1.15,2013-05-07 09:48:00,
2013-05-07 02:53:00,58.0,53.8,30.06,SSE,159,0.0,0.0,86,0.00,,,0.01,Wunderground v.1.15,2013-05-07 09:53:00,
2013-05-07 02:58:00,57.8,53.6,30.07,SSE,159,0.0,0.0,86,0.00,,,0.01,Wunderground v.1.15,2013-05-07 09:58:00,
2013-05-07 03:03:00,57.8,53.6,30.07,SSE,159,0.0,0.0,86,0.00,,,0.01,Wunderground v.1.15,2013-05-07 10:03:00,
2013-05-07 03:08:00,57.8,53.6,30.07,SSE,159,0.0,0.0,86,0.00,,,0.01,Wunderground v.1.15,2013-05-07 10:08:00,
2013-05-07 03:13:00,57.9,53.7,30.07,SSE,159,0.0,0.0,86,0.00,,,0.01,Wunderground v.1.15,2013-05-07 10:13:00,
2013-05-07 03:18:00,58.0,53.8,30.06,SSE,159,0.0,0.0,86,0.00,,,0.01,Wunderground v.1.15,2013-05-07 10:18:00,
2013-05-07 03:23:00,58.0,53.8,30.07,SSE,159,0.0,0.0,86,0.00,,,0.01,Wunderground v.1.15,2013-05-07 10:23:00,
2013-05-07 03:28:00,58.0,53.8,30.07,SSE,159,0.0,0.0,86,0.00,,,0.01,Wunderground v.1.15,2013-05-07 10:28:00,
2013-05-07 03:33:00,58.0,53.8,30.07,SSE,159,0.0,0.0,86,0.00,,,0.01,Wunderground v.1.15,2013-05-07 10:33:00,
2013-05-07 03:38:00,58.1,53.9,30.07,SSE,159,0.0,0.0,86,0.00,,,0.01,Wunderground v.1.15,2013-05-07 10:38:00,
2013-05-07 03:43:00,58.1,54.2,30.07,SSE,159,0.0,0.0,87,0.00,,,0.01,Wunderground v.1.15,2013-05-07 10:43:00,
2013-05-07 03:48:00,58.2,54.3,30.07,SSE,159,0.0,1.0,87,0.00,,,0.01,Wunderground v.1.15,2013-05-07 10:48:00,
2013-05-07 03:53:00,58.2,54.3,30.07,SSE,159,0.0,2.0,87,0.00,,,0.01,Wunderground v.1.15,2013-05-07 10:53:00,
2013-05-07 03:58:00,58.3,54.1,30.07,SSE,159,0.0,2.0,86,0.00,,,0.01,Wunderground v.1.15,2013-05-07 10:58:00,
2013-05-07 04:03:00,58.2,54.0,30.07,SSE,159,0.0,0.0,86,0.00,,,0.01,Wunderground v.1.15,2013-05-07 11:03:00,
2013-05-07 04:08:00,58.3,54.1,30.07,SSE,159,0.0,5.0,86,0.00,,,0.01,Wunderground v.1.15,2013-05-07 11:08:00,
2013-05-07 04:13:00,58.4,53.9,30.07,SSE,159,2.0,3.0,85,0.00,,,0.01,Wunderground v.1.15,2013-05-07 11:13:00,
2013-05-07 04:18:00,58.4,53.6,30.07,SSE,159,0.0,3.0,84,0.00,,,0.01,Wunderground v.1.15,2013-05-07 11:18:00,
2013-05-07 04:23:00,58.3,53.5,30.07,SSE,159,0.0,0.0,84,0.00,,,0.01,Wunderground v.1.15,2013-05-07 11:23:00,
2013-05-07 04:28:00,58.2,53.4,30.07,SSE,159,0.0,0.0,84,0.00,,,0.01,Wunderground v.1.15,2013-05-07 11:28:00,
2013-05-07 04:33:00,58.2,53.4,30.07,SSE,159,0.0,0.0,84,0.00,,,0.01,Wunderground v.1.15,2013-05-07 11:33:00,
2013-05-07 04:38:00,58.2,53.4,30.07,SSE,159,0.0,0.0,84,0.00,,,0.01,Wunderground v.1.15,2013-05-07 11:38:00,
2013-05-07 04:43:00,58.2,53.4,30.07,SSE,159,0.0,0.0,84,0.00,,,0.01,Wunderground v.1.15,2013-05-07 11:43:00,
2013-05-07 04:48:00,58.2,53.4,30.07,SSE,159,0.0,0.0,84,0.00,,,0.01,Wunderground v.1.15,2013-05-07 11:48:00,
2013-05-07 04:53:00,58.4,53.3,30.07,SSE,159,0.0,0.0,83,0.00,,,0.01,Wunderground v.1.15,2013-05-07 11:53:00,
2013-05-07 04:58:00,58.5,53.4,30.07,SSE,159,0.0,0.0,83,0.00,,,0.01,Wunderground v.1.15,2013-05-07 11:58:00,
2013-05-07 05:03:00,58.5,53.0,30.07,SSE,159,0.0,0.0,82,0.00,,,0.01,Wunderground v.1.15,2013-05-07 12:03:00,
2013-05-07 05:08:00,58.6,52.8,30.07,SSE,159,0.0,0.0,81,0.00,,,0.01,Wunderground v.1.15,2013-05-07 12:08:00,
2013-05-07 05:13:00,58.6,52.8,30.07,SSE,159,0.0,1.0,81,0.00,,,0.01,Wunderground v.1.15,2013-05-07 12:13:00,
2013-05-07 05:18:00,58.7,52.9,30.07,SSE,159,0.0,1.0,81,0.00,,,0.01,Wunderground v.1.15,2013-05-07 12:18:00,
2013-05-07 05:23:00,58.6,52.8,30.07,SSE,159,0.0,1.0,81,0.00,,,0.01,Wunderground v.1.15,2013-05-07 12:23:00,
2013-05-07 05:28:00,58.6,52.8,30.07,SSE,159,0.0,1.0,81,0.00,,,0.01,Wunderground v.1.15,2013-05-07 12:28:00,
2013-05-07 05:33:00,58.5,53.0,30.08,SSE,159,0.0,0.0,82,0.00,,,0.01,Wunderground v.1.15,2013-05-07 12:33:00,
2013-05-07 05:38:00,58.4,52.9,30.08,SSE,159,0.0,0.0,82,0.00,,,0.01,Wunderground v.1.15,2013-05-07 12:38:00,
2013-05-07 05:43:00,58.5,53.0,30.08,SSE,159,0.0,1.0,82,0.00,,,0.01,Wunderground v.1.15,2013-05-07 12:43:00,
2013-05-07 05:48:00,58.7,53.2,30.08,SSE,159,0.0,1.0,82,0.00,,,0.01,Wunderground v.1.15,2013-05-07 12:48:00,
2013-05-07 05:53:00,59.0,53.5,30.08,SSE,159,0.0,1.0,82,0.00,,,0.01,Wunderground v.1.15,2013-05-07 12:53:00,
2013-05-07 05:58:00,59.0,53.5,30.08,SSE,159,0.0,1.0,82,0.00,,,0.01,Wunderground v.1.15,2013-05-07 12:58:00,
2013-05-07 06:03:00,59.0,53.5,30.08,SSE,159,1.0,1.0,82,0.00,,,0.01,Wunderground v.1.15,2013-05-07 13:03:00,
2013-05-07 06:08:00,59.0,53.5,30.08,SSE,159,0.0,1.0,82,0.00,,,0.01,Wunderground v.1.15,2013-05-07 13:08:00,
2013-05-07 06:13:00,59.0,53.5,30.08,SSE,159,0.0,0.0,82,0.00,,,0.01,Wunderground v.1.15,2013-05-07 13:13:00,
2013-05-07 06:18:00,58.8,53.3,30.08,SSE,159,0.0,0.0,82,0.00,,,0.01,Wunderground v.1.15,2013-05-07 13:18:00,
2013-05-07 06:23:00,58.7,53.2,30.08,South,178,0.0,0.0,82,0.00,,,0.01,Wunderground v.1.15,2013-05-07 13:23:00,
2013-05-07 06:28:00,58.7,53.5,30.08,South,178,0.0,3.0,83,0.00,,,0.01,Wunderground v.1.15,2013-05-07 13:28:00,
2013-05-07 06:34:00,58.7,53.2,30.09,South,173,2.0,4.0,82,0.00,,,0.01,Wunderground v.1.15,2013-05-07 13:34:00,
2013-05-07 06:39:00,58.9,53.4,30.09,South,171,0.0,4.0,82,0.00,,,0.01,Wunderground v.1.15,2013-05-07 13:39:00,
2013-05-07 06:44:00,59.0,53.5,30.09,South,169,0.0,1.0,82,0.00,,,0.01,Wunderground v.1.15,2013-05-07 13:44:00,
2013-05-07 06:49:00,58.9,53.4,30.09,South,170,0.0,1.0,82,0.00,,,0.01,Wunderground v.1.15,2013-05-07 13:49:00,
2013-05-07 06:54:00,59.0,53.5,30.09,SSW,196,0.0,2.0,82,0.00,,,0.01,Wunderground v.1.15,2013-05-07 13:54:00,
2013-05-07 06:59:00,59.0,53.5,30.09,SSW,207,0.0,2.0,82,0.00,,,0.01,Wunderground v.1.15,2013-05-07 13:59:00,
2013-05-07 07:04:00,59.0,53.2,30.09,SSW,207,0.0,0.0,81,0.00,,,0.01,Wunderground v.1.15,2013-05-07 14:04:00,
2013-05-07 07:09:00,59.0,53.2,30.09,SSW,207,0.0,1.0,81,0.00,,,0.01,Wunderground v.1.15,2013-05-07 14:09:00,
2013-05-07 07:14:00,59.0,53.2,30.10,SSW,196,0.0,0.0,81,0.00,,,0.01,Wunderground v.1.15,2013-05-07 14:14:00,
2013-05-07 07:19:00,59.0,53.2,30.10,South,190,0.0,3.0,81,0.00,,,0.01,Wunderground v.1.15,2013-05-07 14:19:00,
2013-05-07 07:24:00,59.1,53.3,30.10,South,184,0.0,2.0,81,0.00,,,0.01,Wunderground v.1.15,2013-05-07 14:24:00,
2013-05-07 07:29:00,59.5,53.7,30.10,South,184,0.0,2.0,81,0.00,,,0.01,Wunderground v.1.15,2013-05-07 14:29:00,
2013-05-07 07:34:00,59.9,54.1,30.10,South,179,0.0,4.0,81,0.00,,,0.01,Wunderground v.1.15,2013-05-07 14:34:00,
2013-05-07 07:39:00,60.3,54.4,30.10,SSE,167,0.0,4.0,81,0.00,,,0.01,Wunderground v.1.15,2013-05-07 14:39:00,
2013-05-07 07:44:00,60.6,54.0,30.10,SSE,168,0.0,0.0,79,0.00,,,0.01,Wunderground v.1.15,2013-05-07 14:44:00,
2013-05-07 07:49:00,61.0,54.4,30.10,SSE,168,0.0,2.0,79,0.00,,,0.01,Wunderground v.1.15,2013-05-07 14:49:00,
2013-05-07 07:54:00,61.0,54.1,30.10,SSE,168,0.0,4.0,78,0.00,,,0.01,Wunderground v.1.15,2013-05-07 14:54:00,
2013-05-07 07:59:00,61.0,53.7,30.10,SSE,167,0.0,5.0,77,0.00,,,0.01,Wunderground v.1.15,2013-05-07 14:59:00,
2013-05-07 08:04:00,61.2,53.9,30.10,SSE,167,0.0,5.0,77,0.00,,,0.01,Wunderground v.1.15,2013-05-07 15:04:00,
2013-05-07 08:09:00,61.4,53.8,30.11,SSE,167,0.0,5.0,76,0.00,,,0.01,Wunderground v.1.15,2013-05-07 15:09:00,
2013-05-07 08:14:00,61.6,53.6,30.11,South,169,0.0,6.0,75,0.00,,,0.01,Wunderground v.1.15,2013-05-07 15:14:00,
2013-05-07 08:19:00,61.6,53.2,30.11,South,171,0.0,6.0,74,0.00,,,0.01,Wunderground v.1.15,2013-05-07 15:19:00,
2013-05-07 08:24:00,61.8,53.4,30.11,South,171,0.0,1.0,74,0.00,,,0.01,Wunderground v.1.15,2013-05-07 15:24:00,
2013-05-07 08:29:00,61.8,53.1,30.11,South,171,0.0,5.0,73,0.00,,,0.01,Wunderground v.1.15,2013-05-07 15:29:00,
2013-05-07 08:34:00,62.1,53.7,30.11,South,178,0.0,5.0,74,0.00,,,0.01,Wunderground v.1.15,2013-05-07 15:34:00,
2013-05-07 08:39:00,62.3,53.5,30.11,South,178,0.0,5.0,73,0.00,,,0.01,Wunderground v.1.15,2013-05-07 15:39:00,
2013-05-07 08:44:00,62.5,53.7,30.11,SE,138,1.0,5.0,73,0.00,,,0.01,Wunderground v.1.15,2013-05-07 15:44:00,
2013-05-07 08:49:00,62.5,53.0,30.11,South,180,2.0,5.0,71,0.00,,,0.01,Wunderground v.1.15,2013-05-07 15:49:00,
2013-05-07 08:54:00,62.7,53.5,30.12,South,185,4.0,5.0,72,0.00,,,0.01,Wunderground v.1.15,2013-05-07 15:54:00,
2013-05-07 08:59:00,63.1,53.9,30.12,South,188,0.0,6.0,72,0.00,,,0.01,Wunderground v.1.15,2013-05-07 15:59:00,
2013-05-07 09:04:00,63.4,53.0,30.12,SSW,194,0.0,6.0,69,0.00,,,0.01,Wunderground v.1.15,2013-05-07 16:04:00,
2013-05-07 09:09:00,63.5,52.3,30.12,SSW,196,0.0,7.0,67,0.00,,,0.01,Wunderground v.1.15,2013-05-07 16:09:00,
2013-05-07 09:14:00,63.6,53.2,30.12,SSW,203,0.0,3.0,69,0.00,,,0.01,Wunderground v.1.15,2013-05-07 16:14:00,
2013-05-07 09:19:00,63.7,53.3,30.12,SSW,202,0.0,3.0,69,0.00,,,0.01,Wunderground v.1.15,2013-05-07 16:19:00,
2013-05-07 09:24:00,63.8,53.4,30.12,SSW,206,2.0,6.0,69,0.00,,,0.01,Wunderground v.1.15,2013-05-07 16:24:00,
2013-05-07 09:29:00,64.3,54.3,30.12,SSW,207,4.0,6.0,70,0.00,,,0.01,Wunderground v.1.15,2013-05-07 16:29:00,
2013-05-07 09:34:00,64.9,54.5,30.12,SW,216,4.0,6.0,69,0.00,,,0.01,Wunderground v.1.15,2013-05-07 16:34:00,
2013-05-07 09:39:00,65.0,54.2,30.12,SSW,196,2.0,7.0,68,0.00,,,0.01,Wunderground v.1.15,2013-05-07 16:39:00,
2013-05-07 09:44:00,65.5,53.4,30.12,SSW,206,7.0,7.0,65,0.00,,,0.01,Wunderground v.1.15,2013-05-07 16:44:00,
2013-05-07 09:49:00,65.6,53.1,30.12,SW,215,4.0,7.0,64,0.00,,,0.01,Wunderground v.1.15,2013-05-07 16:49:00,
2013-05-07 09:54:00,66.0,53.0,30.12,SSW,198,0.0,6.0,63,0.00,,,0.01,Wunderground v.1.15,2013-05-07 16:54:00,
2013-05-07 09:59:00,66.4,51.6,30.12,SSW,205,3.0,7.0,59,0.00,,,0.01,Wunderground v.1.15,2013-05-07 16:59:00,
2013-05-07 10:04:00,66.5,53.1,30.12,SSW,211,3.0,6.0,62,0.00,,,0.01,Wunderground v.1.15,2013-05-07 17:04:00,
2013-05-07 10:09:00,66.9,52.6,30.12,SSW,200,5.0,9.0,60,0.00,,,0.01,Wunderground v.1.15,2013-05-07 17:09:00,
2013-05-07 10:14:00,66.9,52.1,30.12,SW,217,2.0,7.0,59,0.00,,,0.01,Wunderground v.1.15,2013-05-07 17:14:00,
2013-05-07 10:19:00,67.5,52.7,30.12,SW,223,2.0,10.0,59,0.00,,,0.01,Wunderground v.1.15,2013-05-07 17:19:00,
2013-05-07 10:24:00,67.2,52.4,30.12,SW,215,3.0,7.0,59,0.00,,,0.01,Wunderground v.1.15,2013-05-07 17:24:00,
2013-05-07 10:29:00,67.0,51.7,30.12,SW,222,8.0,10.0,58,0.00,,,0.01,Wunderground v.1.15,2013-05-07 17:29:00,
2013-05-07 10:34:00,66.8,51.1,30.12,SW,227,4.0,6.0,57,0.00,,,0.01,Wunderground v.1.15,2013-05-07 17:34:00,
2013-05-07 10:39:00,67.6,52.8,30.12,SW,219,0.0,6.0,59,0.00,,,0.01,Wunderground v.1.15,2013-05-07 17:39:00,
2013-05-07 10:45:00,67.7,51.4,30.12,SW,225,5.0,9.0,56,0.00,,,0.01,Wunderground v.1.15,2013-05-07 17:45:00,
2013-05-07 10:50:00,67.5,53.1,30.13,South,178,1.0,9.0,60,0.00,,,0.01,Wunderground v.1.15,2013-05-07 17:50:00,
2013-05-07 10:55:00,67.7,51.4,30.13,South,185,1.0,7.0,56,0.00,,,0.01,Wunderground v.1.15,2013-05-07 17:55:00,
2013-05-07 11:00:00,67.7,52.4,30.13,South,187,6.0,6.0,58,0.00,,,0.01,Wunderground v.1.15,2013-05-07 18:00:00,
2013-05-07 11:05:00,68.3,52.9,30.13,SSW,210,6.0,9.0,58,0.00,,,0.01,Wunderground v.1.15,2013-05-07 18:05:00,
2013-05-07 11:10:00,68.4,51.6,30.13,SW,221,3.0,4.0,55,0.00,,,0.01,Wunderground v.1.15,2013-05-07 18:10:00,
2013-05-07 11:15:00,68.6,52.8,30.12,SW,225,5.0,7.0,57,0.00,,,0.01,Wunderground v.1.15,2013-05-07 18:15:00,
2013-05-07 11:20:00,69.0,52.2,30.13,SW,229,2.0,4.0,55,0.00,,,0.01,Wunderground v.1.15,2013-05-07 18:20:00,
2013-05-07 11:25:00,68.2,51.4,30.13,South,172,1.0,6.0,55,0.00,,,0.01,Wunderground v.1.15,2013-05-07 18:25:00,
2013-05-07 11:30:00,68.3,51.0,30.13,WSW,241,2.0,3.0,54,0.00,,,0.01,Wunderground v.1.15,2013-05-07 18:30:00,
2013-05-07 11:35:00,69.1,52.7,30.13,South,184,6.0,6.0,56,0.00,,,0.01,Wunderground v.1.15,2013-05-07 18:35:00,
2013-05-07 11:40:00,68.7,51.4,30.13,South,187,0.0,3.0,54,0.00,,,0.01,Wunderground v.1.15,2013-05-07 18:40:00,
2013-05-07 11:45:00,68.9,52.1,30.12,South,182,0.0,3.0,55,0.00,,,0.01,Wunderground v.1.15,2013-05-07 18:45:00,
2013-05-07 11:50:00,69.3,51.9,30.13,SSW,195,6.0,6.0,54,0.00,,,0.01,Wunderground v.1.15,2013-05-07 18:50:00,
2013-05-07 11:55:00,69.1,50.7,30.12,SSW,213,2.0,9.0,52,0.00,,,0.01,Wunderground v.1.15,2013-05-07 18:55:00,
2013-05-07 12:00:00,69.1,51.2,30.12,SSW,210,1.0,3.0,53,0.00,,,0.01,Wunderground v.1.15,2013-05-07 19:00:00,
2013-05-07 12:05:00,69.9,52.0,30.12,SSW,210,1.0,3.0,53,0.00,,,0.01,Wunderground v.1.15,2013-05-07 19:05:00,
2013-05-07 12:10:00,69.6,51.2,30.12,West,272,2.0,4.0,52,0.00,,,0.01,Wunderground v.1.15,2013-05-07 19:10:00,
2013-05-07 12:15:00,69.7,52.3,30.12,WSW,241,6.0,9.0,54,0.00,,,0.01,Wunderground v.1.15,2013-05-07 19:15:00,
2013-05-07 12:20:00,69.6,51.7,30.12,WSW,241,0.0,4.0,53,0.00,,,0.01,Wunderground v.1.15,2013-05-07 19:20:00,
2013-05-07 12:25:00,70.2,52.3,30.12,WSW,242,3.0,6.0,53,0.00,,,0.01,Wunderground v.1.15,2013-05-07 19:25:00,
2013-05-07 12:30:00,70.3,51.3,30.12,WSW,237,3.0,3.0,51,0.00,,,0.01,Wunderground v.1.15,2013-05-07 19:30:00,
2013-05-07 12:35:00,70.7,52.2,30.12,SSW,196,1.0,6.0,52,0.00,,,0.01,Wunderground v.1.15,2013-05-07 19:35:00,
2013-05-07 12:40:00,70.5,52.0,30.12,SSW,200,5.0,7.0,52,0.00,,,0.01,Wunderground v.1.15,2013-05-07 19:40:00,
2013-05-07 12:45:00,70.2,51.7,30.12,South,185,5.0,9.0,52,0.00,,,0.01,Wunderground v.1.15,2013-05-07 19:45:00,
2013-05-07 12:50:00,69.9,51.5,30.11,South,183,0.0,2.0,52,0.00,,,0.01,Wunderground v.1.15,2013-05-07 19:50:00,
2013-05-07 12:55:00,70.5,52.5,30.11,South,175,5.0,9.0,53,0.00,,,0.01,Wunderground v.1.15,2013-05-07 19:55:00,
2013-05-07 13:01:00,69.8,51.9,30.11,South,169,0.0,2.0,53,0.00,,,0.01,Wunderground v.1.15,2013-05-07 20:01:00,
2013-05-07 13:06:00,70.1,52.7,30.11,South,171,0.0,2.0,54,0.00,,,0.01,Wunderground v.1.15,2013-05-07 20:06:00,
2013-05-07 13:11:00,70.5,51.5,30.11,South,183,6.0,6.0,51,0.00,,,0.01,Wunderground v.1.15,2013-05-07 20:11:00,
2013-05-07 13:16:00,70.9,51.3,30.11,SSW,204,5.0,9.0,50,0.00,,,0.01,Wunderground v.1.15,2013-05-07 20:16:00,
2013-05-07 13:21:00,71.3,52.2,30.10,SW,234,3.0,3.0,51,0.00,,,0.01,Wunderground v.1.15,2013-05-07 20:21:00,
2013-05-07 13:26:00,71.6,52.5,30.10,WSW,245,2.0,10.0,51,0.00,,,0.01,Wunderground v.1.15,2013-05-07 20:26:00,
2013-05-07 13:31:00,71.2,52.1,30.10,SSW,202,4.0,4.0,51,0.00,,,0.01,Wunderground v.1.15,2013-05-07 20:31:00,
2013-05-07 13:36:00,71.9,52.2,30.10,South,188,6.0,10.0,50,0.00,,,0.01,Wunderground v.1.15,2013-05-07 20:36:00,
2013-05-07 13:41:00,71.6,51.4,30.11,SW,219,0.0,4.0,49,0.00,,,0.01,Wunderground v.1.15,2013-05-07 20:41:00,
2013-05-07 13:46:00,71.8,52.7,30.10,South,175,6.0,7.0,51,0.00,,,0.01,Wunderground v.1.15,2013-05-07 20:46:00,
2013-05-07 13:51:00,71.0,52.0,30.10,SE,133,4.0,4.0,51,0.00,,,0.01,Wunderground v.1.15,2013-05-07 20:51:00,
2013-05-07 13:56:00,71.1,52.6,30.10,SE,125,0.0,4.0,52,0.00,,,0.01,Wunderground v.1.15,2013-05-07 20:56:00,
2013-05-07 14:01:00,71.9,51.7,30.10,SW,234,6.0,11.0,49,0.00,,,0.01,Wunderground v.1.15,2013-05-07 21:01:00,
2013-05-07 14:06:00,72.0,52.3,30.10,SSW,207,3.0,11.0,50,0.00,,,0.01,Wunderground v.1.15,2013-05-07 21:06:00,
2013-05-07 14:11:00,72.4,52.7,30.10,South,182,0.0,5.0,50,0.00,,,0.01,Wunderground v.1.15,2013-05-07 21:11:00,
2013-05-07 14:16:00,73.0,52.7,30.10,SSE,156,0.0,5.0,49,0.00,,,0.01,Wunderground v.1.15,2013-05-07 21:16:00,
2013-05-07 14:21:00,73.2,52.9,30.09,SSE,160,0.0,3.0,49,0.00,,,0.01,Wunderground v.1.15,2013-05-07 21:21:00,
2013-05-07 14:26:00,73.2,52.9,30.10,SW,222,3.0,11.0,49,0.00,,,0.01,Wunderground v.1.15,2013-05-07 21:26:00,
2013-05-07 14:31:00,73.7,52.8,30.10,SW,226,6.0,11.0,48,0.00,,,0.01,Wunderground v.1.15,2013-05-07 21:31:00,
2013-05-07 14:36:00,74.1,52.6,30.10,SW,223,4.0,11.0,47,0.00,,,0.01,Wunderground v.1.15,2013-05-07 21:36:00,
2013-05-07 14:41:00,74.3,52.8,30.10,South,175,1.0,10.0,47,0.00,,,0.01,Wunderground v.1.15,2013-05-07 21:41:00,
2013-05-07 14:46:00,73.3,51.8,30.09,SSW,200,2.0,10.0,47,0.00,,,0.01,Wunderground v.1.15,2013-05-07 21:46:00,
2013-05-07 14:51:00,73.0,51.6,30.09,SW,221,1.0,6.0,47,0.00,,,0.01,Wunderground v.1.15,2013-05-07 21:51:00,
2013-05-07 14:56:00,73.9,52.4,30.09,SW,219,6.0,6.0,47,0.00,,,0.01,Wunderground v.1.15,2013-05-07 21:56:00,
2013-05-07 15:01:00,73.7,52.2,30.09,SSW,192,5.0,7.0,47,0.00,,,0.01,Wunderground v.1.15,2013-05-07 22:01:00,
2013-05-07 15:06:00,73.2,52.3,30.09,SW,229,12.0,13.0,48,0.00,,,0.01,Wunderground v.1.15,2013-05-07 22:06:00,
2013-05-07 15:11:00,73.3,51.8,30.09,SW,220,0.0,6.0,47,0.00,,,0.01,Wunderground v.1.15,2013-05-07 22:11:00,
2013-05-07 15:16:00,73.6,52.7,30.09,SSW,202,8.0,11.0,48,0.00,,,0.01,Wunderground v.1.15,2013-05-07 22:16:00,
2013-05-07 15:21:00,74.0,51.3,30.09,SW,234,0.0,8.0,45,0.00,,,0.01,Wunderground v.1.15,2013-05-07 22:21:00,
2013-05-07 15:27:00,74.4,52.3,30.09,SW,215,4.0,10.0,46,0.00,,,0.01,Wunderground v.1.15,2013-05-07 22:27:00,
2013-05-07 15:32:00,74.2,52.7,30.08,SW,221,4.0,9.0,47,0.00,,,0.01,Wunderground v.1.15,2013-05-07 22:32:00,
2013-05-07 15:37:00,74.6,52.4,30.08,South,181,6.0,10.0,46,0.00,,,0.01,Wunderground v.1.15,2013-05-07 22:37:00,
2013-05-07 15:42:00,75.1,52.9,30.08,SSW,199,5.0,10.0,46,0.00,,,0.01,Wunderground v.1.15,2013-05-07 22:42:00,
2013-05-07 15:47:00,74.1,51.4,30.08,SE,144,5.0,11.0,45,0.00,,,0.01,Wunderground v.1.15,2013-05-07 22:47:00,
2013-05-07 15:52:00,73.5,52.0,30.08,SSW,200,6.0,7.0,47,0.00,,,0.01,Wunderground v.1.15,2013-05-07 22:52:00,
2013-05-07 15:57:00,73.3,51.8,30.08,WSW,241,6.0,13.0,47,0.00,,,0.01,Wunderground v.1.15,2013-05-07 22:57:00,
2013-05-07 16:02:00,72.9,52.1,30.08,SW,230,6.0,9.0,48,0.00,,,0.01,Wunderground v.1.15,2013-05-07 23:02:00,
2013-05-07 16:07:00,72.8,52.0,30.08,WSW,246,7.0,10.0,48,0.00,,,0.01,Wunderground v.1.15,2013-05-07 23:07:00,
2013-05-07 16:12:00,72.7,51.9,30.08,SW,235,4.0,10.0,48,0.00,,,0.01,Wunderground v.1.15,2013-05-07 23:12:00,
2013-05-07 16:17:00,72.6,51.2,30.08,WSW,248,4.0,10.0,47,0.00,,,0.01,Wunderground v.1.15,2013-05-07 23:17:00,
2013-05-07 16:22:00,72.5,51.1,30.08,SW,232,10.0,10.0,47,0.00,,,0.01,Wunderground v.1.15,2013-05-07 23:22:00,
2013-05-07 16:27:00,72.1,50.8,30.08,SW,233,10.0,10.0,47,0.00,,,0.01,Wunderground v.1.15,2013-05-07 23:27:00,
2013-05-07 16:32:00,72.2,51.4,30.07,SW,235,4.0,6.0,48,0.00,,,0.01,Wunderground v.1.15,2013-05-07 23:32:00,
2013-05-07 16:37:00,72.4,51.0,30.08,SW,227,4.0,10.0,47,0.00,,,0.01,Wunderground v.1.15,2013-05-07 23:37:00,
2013-05-07 16:42:00,72.4,51.6,30.08,SW,225,3.0,6.0,48,0.00,,,0.01,Wunderground v.1.15,2013-05-07 23:42:00,
2013-05-07 16:47:00,72.4,51.0,30.07,SW,236,6.0,10.0,47,0.00,,,0.01,Wunderground v.1.15,2013-05-07 23:47:00,
2013-05-07 16:52:00,72.1,51.3,30.07,SW,229,3.0,9.0,48,0.00,,,0.01,Wunderground v.1.15,2013-05-07 23:52:00,
2013-05-07 16:57:00,72.1,51.3,30.07,WSW,242,9.0,13.0,48,0.00,,,0.01,Wunderground v.1.15,2013-05-07 23:57:00,
2013-05-07 17:02:00,72.1,51.3,30.07,WSW,242,0.0,5.0,48,0.00,,,0.01,Wunderground v.1.15,2013-05-08 00:02:00,
2013-05-07 17:07:00,72.2,51.4,30.07,SW,230,11.0,11.0,48,0.00,,,0.01,Wunderground v.1.15,2013-05-08 00:07:00,
2013-05-07 17:12:00,72.1,51.3,30.07,SW,229,6.0,6.0,48,0.00,,,0.01,Wunderground v.1.15,2013-05-08 00:12:00,
2013-05-07 17:17:00,72.2,51.4,30.07,SW,231,4.0,10.0,48,0.00,,,0.01,Wunderground v.1.15,2013-05-08 00:17:00,
2013-05-07 17:22:00,72.3,50.9,30.07,SW,227,4.0,7.0,47,0.00,,,0.01,Wunderground v.1.15,2013-05-08 00:22:00,
2013-05-07 17:27:00,72.2,51.4,30.07,SW,236,6.0,10.0,48,0.00,,,0.01,Wunderground v.1.15,2013-05-08 00:27:00,
2013-05-07 17:32:00,72.3,51.5,30.07,SW,227,7.0,10.0,48,0.00,,,0.01,Wunderground v.1.15,2013-05-08 00:32:00,
2013-05-07 17:37:00,72.3,51.5,30.07,SW,235,4.0,10.0,48,0.00,,,0.01,Wunderground v.1.15,2013-05-08 00:37:00,
2013-05-07 17:42:00,72.6,51.8,30.07,SW,216,5.0,7.0,48,0.00,,,0.01,Wunderground v.1.15,2013-05-08 00:42:00,
2013-05-07 17:47:00,72.7,51.9,30.07,SW,231,9.0,10.0,48,0.00,,,0.01,Wunderground v.1.15,2013-05-08 00:47:00,
2013-05-07 17:52:00,72.6,52.3,30.07,SW,232,1.0,6.0,49,0.00,,,0.01,Wunderground v.1.15,2013-05-08 00:52:00,
2013-05-07 17:57:00,73.0,52.1,30.07,SW,232,7.0,9.0,48,0.00,,,0.01,Wunderground v.1.15,2013-05-08 00:57:00,
2013-05-07 18:02:00,73.0,52.7,30.07,SW,215,6.0,8.0,49,0.00,,,0.01,Wunderground v.1.15,2013-05-08 01:02:00,
2013-05-07 18:07:00,73.3,51.8,30.07,SW,232,5.0,11.0,47,0.00,,,0.01,Wunderground v.1.15,2013-05-08 01:07:00,
2013-05-07 18:12:00,73.1,51.7,30.07,SW,218,7.0,10.0,47,0.00,,,0.01,Wunderground v.1.15,2013-05-08 01:12:00,
2013-05-07 18:17:00,72.6,51.8,30.07,SW,232,6.0,11.0,48,0.00,,,0.01,Wunderground v.1.15,2013-05-08 01:17:00,
2013-05-07 18:22:00,73.0,52.7,30.07,WSW,242,4.0,6.0,49,0.00,,,0.01,Wunderground v.1.15,2013-05-08 01:22:00,
2013-05-07 18:27:00,73.2,52.3,30.07,WSW,238,5.0,10.0,48,0.00,,,0.01,Wunderground v.1.15,2013-05-08 01:27:00,
2013-05-07 18:32:00,73.0,52.1,30.07,SW,228,10.0,11.0,48,0.00,,,0.01,Wunderground v.1.15,2013-05-08 01:32:00,
2013-05-07 18:37:00,72.5,52.2,30.07,SW,215,4.0,11.0,49,0.00,,,0.01,Wunderground v.1.15,2013-05-08 01:37:00,
2013-05-07 18:42:00,72.1,51.9,30.07,SW,234,4.0,9.0,49,0.00,,,0.01,Wunderground v.1.15,2013-05-08 01:42:00,
2013-05-07 18:47:00,71.8,51.6,30.07,SW,232,6.0,10.0,49,0.00,,,0.01,Wunderground v.1.15,2013-05-08 01:47:00,
2013-05-07 18:52:00,71.7,52.1,30.07,WSW,242,1.0,6.0,50,0.00,,,0.01,Wunderground v.1.15,2013-05-08 01:52:00,
2013-05-07 18:57:00,71.8,52.2,30.07,West,259,3.0,9.0,50,0.00,,,0.01,Wunderground v.1.15,2013-05-08 01:57:00,
2013-05-07 19:02:00,71.7,52.1,30.07,West,260,4.0,6.0,50,0.00,,,0.01,Wunderground v.1.15,2013-05-08 02:02:00,
2013-05-07 19:07:00,71.6,52.0,30.08,WSW,249,4.0,7.0,50,0.00,,,0.01,Wunderground v.1.15,2013-05-08 02:07:00,
2013-05-07 19:12:00,71.4,51.8,30.08,WSW,242,1.0,5.0,50,0.00,,,0.01,Wunderground v.1.15,2013-05-08 02:12:00,
2013-05-07 19:17:00,71.3,51.7,30.08,WSW,240,5.0,6.0,50,0.00,,,0.01,Wunderground v.1.15,2013-05-08 02:17:00,
2013-05-07 19:22:00,71.2,51.6,30.08,WSW,241,4.0,6.0,50,0.00,,,0.01,Wunderground v.1.15,2013-05-08 02:22:00,
2013-05-07 19:27:00,71.0,52.0,30.08,WSW,240,6.0,6.0,51,0.00,,,0.01,Wunderground v.1.15,2013-05-08 02:27:00,
2013-05-07 19:32:00,71.0,52.0,30.08,WSW,242,4.0,6.0,51,0.00,,,0.01,Wunderground v.1.15,2013-05-08 02:32:00,
2013-05-07 19:37:00,71.0,52.0,30.08,WSW,243,2.0,6.0,51,0.00,,,0.01,Wunderground v.1.15,2013-05-08 02:37:00,
2013-05-07 19:43:00,71.1,52.6,30.08,WSW,243,2.0,4.0,52,0.00,,,0.01,Wunderground v.1.15,2013-05-08 02:43:00,
2013-05-07 19:48:00,71.1,52.6,30.08,WSW,248,2.0,5.0,52,0.00,,,0.01,Wunderground v.1.15,2013-05-08 02:48:00,
2013-05-07 19:53:00,71.1,52.6,30.08,WSW,248,1.0,4.0,52,0.00,,,0.01,Wunderground v.1.15,2013-05-08 02:53:00,
2013-05-07 19:58:00,71.0,52.5,30.08,WSW,251,4.0,4.0,52,0.00,,,0.01,Wunderground v.1.15,2013-05-08 02:58:00,
2013-05-07 20:03:00,70.8,52.8,30.08,WSW,250,3.0,4.0,53,0.00,,,0.01,Wunderground v.1.15,2013-05-08 03:03:00,
2013-05-07 20:08:00,70.3,52.9,30.08,WSW,250,1.0,5.0,54,0.00,,,0.01,Wunderground v.1.15,2013-05-08 03:08:00,
2013-05-07 20:13:00,70.1,52.7,30.08,WSW,248,3.0,6.0,54,0.00,,,0.01,Wunderground v.1.15,2013-05-08 03:13:00,
2013-05-07 20:18:00,69.8,52.9,30.08,WSW,242,5.0,6.0,55,0.00,,,0.01,Wunderground v.1.15,2013-05-08 03:18:00,
2013-05-07 20:23:00,69.6,53.2,30.08,WSW,237,2.0,6.0,56,0.00,,,0.01,Wunderground v.1.15,2013-05-08 03:23:00,
2013-05-07 20:28:00,69.4,53.5,30.09,WSW,237,2.0,6.0,57,0.00,,,0.01,Wunderground v.1.15,2013-05-08 03:28:00,
2013-05-07 20:33:00,69.4,53.5,30.09,WSW,237,3.0,4.0,57,0.00,,,0.01,Wunderground v.1.15,2013-05-08 03:33:00,
2013-05-07 20:38:00,69.2,53.8,30.09,WSW,237,2.0,4.0,58,0.00,,,0.01,Wunderground v.1.15,2013-05-08 03:38:00,
2013-05-07 20:43:00,69.0,53.6,30.09,WSW,237,1.0,3.0,58,0.00,,,0.01,Wunderground v.1.15,2013-05-08 03:43:00,
2013-05-07 20:48:00,68.9,54.0,30.09,WSW,237,3.0,3.0,59,0.00,,,0.01,Wunderground v.1.15,2013-05-08 03:48:00,
2013-05-07 20:53:00,68.8,53.9,30.09,WSW,237,2.0,3.0,59,0.00,,,0.01,Wunderground v.1.15,2013-05-08 03:53:00,
2013-05-07 20:58:00,68.8,53.9,30.09,WSW,237,2.0,4.0,59,0.00,,,0.01,Wunderground v.1.15,2013-05-08 03:58:00,
2013-05-07 21:01:00,68.7,53.8,30.09,WSW,237,2.0,3.0,59,0.00,,,0.01,Wunderground v.1.15,2013-05-08 04:01:00,
2013-05-07 21:06:00,68.5,54.1,30.09,WSW,237,1.0,3.0,60,0.00,,,0.01,Wunderground v.1.15,2013-05-08 04:06:00,
2013-05-07 21:11:00,68.5,54.1,30.09,WSW,237,2.0,2.0,60,0.00,,,0.01,Wunderground v.1.15,2013-05-08 04:11:00,
2013-05-07 21:16:00,68.4,54.0,30.09,WSW,237,3.0,4.0,60,0.00,,,0.01,Wunderground v.1.15,2013-05-08 04:16:00,
2013-05-07 21:21:00,68.1,54.1,30.09,WSW,237,3.0,4.0,61,0.00,,,0.01,Wunderground v.1.15,2013-05-08 04:21:00,
2013-05-07 21:26:00,67.9,54.4,30.09,SW,236,4.0,6.0,62,0.00,,,0.01,Wunderground v.1.15,2013-05-08 04:26:00,
2013-05-07 21:31:00,67.6,54.1,30.09,SW,236,4.0,6.0,62,0.00,,,0.01,Wunderground v.1.15,2013-05-08 04:31:00,
2013-05-07 21:36:00,67.4,53.9,30.09,SW,235,4.0,7.0,62,0.00,,,0.01,Wunderground v.1.15,2013-05-08 04:36:00,
2013-05-07 21:41:00,67.3,53.8,30.09,SW,234,3.0,5.0,62,0.00,,,0.01,Wunderground v.1.15,2013-05-08 04:41:00,
2013-05-07 21:46:00,67.4,53.5,30.09,SW,234,4.0,7.0,61,0.00,,,0.01,Wunderground v.1.15,2013-05-08 04:46:00,
2013-05-07 21:51:00,67.3,53.4,30.10,SW,233,8.0,8.0,61,0.00,,,0.01,Wunderground v.1.15,2013-05-08 04:51:00,
2013-05-07 21:56:00,67.2,53.3,30.10,SW,229,3.0,8.0,61,0.00,,,0.01,Wunderground v.1.15,2013-05-08 04:56:00,
2013-05-07 22:01:00,67.1,53.2,30.10,SW,230,5.0,9.0,61,0.00,,,0.01,Wunderground v.1.15,2013-05-08 05:01:00,
2013-05-07 22:06:00,66.8,53.4,30.10,SW,230,5.0,9.0,62,0.00,,,0.01,Wunderground v.1.15,2013-05-08 05:06:00,
2013-05-07 22:11:00,66.5,53.5,30.10,SW,229,6.0,7.0,63,0.00,,,0.01,Wunderground v.1.15,2013-05-08 05:11:00,
2013-05-07 22:17:00,66.0,53.5,30.10,SW,229,2.0,7.0,64,0.00,,,0.01,Wunderground v.1.15,2013-05-08 05:17:00,
2013-05-07 22:22:00,65.8,53.3,30.10,SW,229,5.0,6.0,64,0.00,,,0.01,Wunderground v.1.15,2013-05-08 05:22:00,
2013-05-07 22:27:00,65.6,53.1,30.11,SW,229,3.0,6.0,64,0.00,,,0.01,Wunderground v.1.15,2013-05-08 05:27:00,
2013-05-07 22:32:00,65.5,53.4,30.11,SW,229,2.0,4.0,65,0.00,,,0.01,Wunderground v.1.15,2013-05-08 05:32:00,
2013-05-07 22:37:00,65.3,53.2,30.11,SW,229,3.0,5.0,65,0.00,,,0.01,Wunderground v.1.15,2013-05-08 05:37:00,
2013-05-07 22:42:00,64.8,52.8,30.11,SW,229,2.0,6.0,65,0.00,,,0.01,Wunderground v.1.15,2013-05-08 05:42:00,
2013-05-07 22:47:00,64.7,53.1,30.11,SW,229,2.0,6.0,66,0.00,,,0.01,Wunderground v.1.15,2013-05-08 05:47:00,
2013-05-07 22:52:00,64.5,53.3,30.11,SW,229,1.0,5.0,67,0.00,,,0.01,Wunderground v.1.15,2013-05-08 05:52:00,
2013-05-07 22:57:00,64.4,53.6,30.11,SW,229,1.0,5.0,68,0.00,,,0.01,Wunderground v.1.15,2013-05-08 05:57:00,
2013-05-07 23:02:00,64.5,53.3,30.11,SW,227,4.0,6.0,67,0.00,,,0.01,Wunderground v.1.15,2013-05-08 06:02:00,
2013-05-07 23:07:00,64.6,53.4,30.11,SW,227,5.0,6.0,67,0.00,,,0.01,Wunderground v.1.15,2013-05-08 06:07:00,
2013-05-07 23:12:00,64.7,53.5,30.11,SW,226,4.0,5.0,67,0.00,,,0.01,Wunderground v.1.15,2013-05-08 06:12:00,
2013-05-07 23:17:00,64.7,53.5,30.11,SW,227,5.0,6.0,67,0.00,,,0.01,Wunderground v.1.15,2013-05-08 06:17:00,
2013-05-07 23:22:00,64.6,53.0,30.11,SW,226,3.0,4.0,66,0.00,,,0.01,Wunderground v.1.15,2013-05-08 06:22:00,
2013-05-07 23:27:00,64.5,52.9,30.11,SW,227,2.0,5.0,66,0.00,,,0.01,Wunderground v.1.15,2013-05-08 06:27:00,
2013-05-07 23:32:00,64.6,53.0,30.12,SW,227,0.0,3.0,66,0.00,,,0.01,Wunderground v.1.15,2013-05-08 06:32:00,
2013-05-07 23:37:00,64.5,52.9,30.12,SW,227,2.0,4.0,66,0.00,,,0.01,Wunderground v.1.15,2013-05-08 06:37:00,
2013-05-07 23:42:00,64.3,52.7,30.12,SW,227,0.0,2.0,66,0.00,,,0.01,Wunderground v.1.15,2013-05-08 06:42:00,
2013-05-07 23:48:00,64.2,53.0,30.12,SW,227,0.0,2.0,67,0.00,,,0.01,Wunderground v.1.15,2013-05-08 06:48:00,
2013-05-07 23:53:00,63.9,53.1,30.12,SW,226,5.0,5.0,68,0.00,,,0.01,Wunderground v.1.15,2013-05-08 06:53:00,
2013-05-07 23:58:00,63.8,53.0,30.12,SW,226,1.0,5.0,68,0.00,,,0.01,Wunderground v.1.15,2013-05-08 06:58:00,